sensor_id;sensor_type;location;lat;lon;timestamp;temperature;humidity
7077;DHT22;3579;48.956;9.154;2023-07-31T00:01:08;24.50;57.60
7077;DHT22;3579;48.956;9.154;2023-07-31T00:03:34;24.50;57.10
7077;DHT22;3579;48.956;9.154;2023-07-31T00:06:00;24.50;57.10
7077;DHT22;3579;48.956;9.154;2023-07-31T00:08:26;24.50;57.10
7077;DHT22;3579;48.956;9.154;2023-07-31T00:10:53;24.50;57.20
7077;DHT22;3579;48.956;9.154;2023-07-31T00:13:19;24.40;57.10
7077;DHT22;3579;48.956;9.154;2023-07-31T00:15:45;24.40;57.10
7077;DHT22;3579;48.956;9.154;2023-07-31T00:18:11;24.40;57.10
7077;DHT22;3579;48.956;9.154;2023-07-31T00:20:37;24.40;57.10
7077;DHT22;3579;48.956;9.154;2023-07-31T00:23:03;24.40;57.10
7077;DHT22;3579;48.956;9.154;2023-07-31T00:25:29;24.40;57.20
7077;DHT22;3579;48.956;9.154;2023-07-31T00:27:55;24.40;57.20
7077;DHT22;3579;48.956;9.154;2023-07-31T00:30:21;24.40;57.20
7077;DHT22;3579;48.956;9.154;2023-07-31T00:32:48;24.40;57.20
7077;DHT22;3579;48.956;9.154;2023-07-31T00:35:14;24.40;57.30
7077;DHT22;3579;48.956;9.154;2023-07-31T00:37:40;24.40;57.30
7077;DHT22;3579;48.956;9.154;2023-07-31T00:40:07;24.40;57.30
7077;DHT22;3579;48.956;9.154;2023-07-31T00:42:33;24.40;57.30
7077;DHT22;3579;48.956;9.154;2023-07-31T00:44:59;24.30;57.30
7077;DHT22;3579;48.956;9.154;2023-07-31T00:47:25;24.30;57.30
7077;DHT22;3579;48.956;9.154;2023-07-31T00:49:51;24.30;57.30
7077;DHT22;3579;48.956;9.154;2023-07-31T00:52:18;24.30;57.30
7077;DHT22;3579;48.956;9.154;2023-07-31T00:54:45;24.30;57.40
7077;DHT22;3579;48.956;9.154;2023-07-31T00:57:11;24.30;57.30
7077;DHT22;3579;48.956;9.154;2023-07-31T00:59:37;24.30;57.40
7077;DHT22;3579;48.956;9.154;2023-07-31T01:02:03;24.30;57.40
7077;DHT22;3579;48.956;9.154;2023-07-31T01:04:30;24.30;57.40
7077;DHT22;3579;48.956;9.154;2023-07-31T01:07:05;24.20;57.30
7077;DHT22;3579;48.956;9.154;2023-07-31T01:12:07;24.20;57.90
7077;DHT22;3579;48.956;9.154;2023-07-31T01:14:33;24.20;57.40
7077;DHT22;3579;48.956;9.154;2023-07-31T01:17:00;24.20;57.40
7077;DHT22;3579;48.956;9.154;2023-07-31T01:19:27;24.20;57.50
7077;DHT22;3579;48.956;9.154;2023-07-31T01:27:30;24.20;57.50
7077;DHT22;3579;48.956;9.154;2023-07-31T01:30:03;24.10;57.40
7077;DHT22;3579;48.956;9.154;2023-07-31T01:32:41;24.10;57.40
7077;DHT22;3579;48.956;9.154;2023-07-31T01:35:08;24.10;57.40
7077;DHT22;3579;48.956;9.154;2023-07-31T01:37:35;24.10;57.50
7077;DHT22;3579;48.956;9.154;2023-07-31T01:40:01;24.10;57.50
7077;DHT22;3579;48.956;9.154;2023-07-31T01:42:27;24.10;57.50
7077;DHT22;3579;48.956;9.154;2023-07-31T01:44:53;24.10;57.50
7077;DHT22;3579;48.956;9.154;2023-07-31T01:47:19;24.10;57.50
7077;DHT22;3579;48.956;9.154;2023-07-31T01:49:45;24.10;57.60
7077;DHT22;3579;48.956;9.154;2023-07-31T01:52:11;24.10;57.50
7077;DHT22;3579;48.956;9.154;2023-07-31T01:54:37;24.00;57.50
7077;DHT22;3579;48.956;9.154;2023-07-31T01:57:03;24.00;57.50
7077;DHT22;3579;48.956;9.154;2023-07-31T01:59:29;24.00;57.50
7077;DHT22;3579;48.956;9.154;2023-07-31T02:01:55;24.00;57.60
7077;DHT22;3579;48.956;9.154;2023-07-31T02:04:21;24.00;57.60
7077;DHT22;3579;48.956;9.154;2023-07-31T02:06:47;24.00;57.60
7077;DHT22;3579;48.956;9.154;2023-07-31T02:09:13;24.00;57.70
7077;DHT22;3579;48.956;9.154;2023-07-31T02:11:39;24.00;57.60
7077;DHT22;3579;48.956;9.154;2023-07-31T02:14:06;24.00;57.70
7077;DHT22;3579;48.956;9.154;2023-07-31T02:16:32;24.00;57.70
7077;DHT22;3579;48.956;9.154;2023-07-31T02:18:58;23.90;57.60
7077;DHT22;3579;48.956;9.154;2023-07-31T02:21:24;24.00;57.70
7077;DHT22;3579;48.956;9.154;2023-07-31T02:23:50;23.90;57.60
7077;DHT22;3579;48.956;9.154;2023-07-31T02:26:16;23.90;57.70
7077;DHT22;3579;48.956;9.154;2023-07-31T02:28:42;23.90;57.70
7077;DHT22;3579;48.956;9.154;2023-07-31T02:31:09;23.90;57.70
7077;DHT22;3579;48.956;9.154;2023-07-31T02:33:35;23.90;57.70
7077;DHT22;3579;48.956;9.154;2023-07-31T02:36:01;23.90;57.80
7077;DHT22;3579;48.956;9.154;2023-07-31T02:38:27;23.90;57.70
7077;DHT22;3579;48.956;9.154;2023-07-31T02:40:53;23.90;57.80
7077;DHT22;3579;48.956;9.154;2023-07-31T02:43:19;23.90;57.80
7077;DHT22;3579;48.956;9.154;2023-07-31T02:45:45;23.90;57.80
7077;DHT22;3579;48.956;9.154;2023-07-31T02:48:11;23.90;57.80
7077;DHT22;3579;48.956;9.154;2023-07-31T02:50:37;23.80;57.80
7077;DHT22;3579;48.956;9.154;2023-07-31T02:53:03;23.80;57.80
7077;DHT22;3579;48.956;9.154;2023-07-31T02:55:29;23.80;57.80
7077;DHT22;3579;48.956;9.154;2023-07-31T02:57:55;23.80;57.80
7077;DHT22;3579;48.956;9.154;2023-07-31T03:00:21;23.80;57.80
7077;DHT22;3579;48.956;9.154;2023-07-31T03:02:47;23.80;57.90
7077;DHT22;3579;48.956;9.154;2023-07-31T03:05:14;23.80;57.90
7077;DHT22;3579;48.956;9.154;2023-07-31T03:07:40;23.80;57.90
7077;DHT22;3579;48.956;9.154;2023-07-31T03:10:06;23.80;57.90
7077;DHT22;3579;48.956;9.154;2023-07-31T03:12:32;23.80;57.90
7077;DHT22;3579;48.956;9.154;2023-07-31T03:14:58;23.70;57.80
7077;DHT22;3579;48.956;9.154;2023-07-31T03:17:25;23.70;57.90
7077;DHT22;3579;48.956;9.154;2023-07-31T03:19:51;23.70;57.90
7077;DHT22;3579;48.956;9.154;2023-07-31T03:22:17;23.70;57.90
7077;DHT22;3579;48.956;9.154;2023-07-31T03:24:43;23.70;58.00
7077;DHT22;3579;48.956;9.154;2023-07-31T03:27:09;23.70;57.90
7077;DHT22;3579;48.956;9.154;2023-07-31T03:29:35;23.70;58.00
7077;DHT22;3579;48.956;9.154;2023-07-31T03:32:01;23.70;58.00
7077;DHT22;3579;48.956;9.154;2023-07-31T03:34:27;23.70;58.00
7077;DHT22;3579;48.956;9.154;2023-07-31T03:36:53;23.70;58.10
7077;DHT22;3579;48.956;9.154;2023-07-31T03:39:20;23.70;58.00
7077;DHT22;3579;48.956;9.154;2023-07-31T03:41:46;23.70;58.10
7077;DHT22;3579;48.956;9.154;2023-07-31T03:44:12;23.70;58.00
7077;DHT22;3579;48.956;9.154;2023-07-31T03:46:38;23.70;58.10
7077;DHT22;3579;48.956;9.154;2023-07-31T03:49:04;23.60;58.10
7077;DHT22;3579;48.956;9.154;2023-07-31T03:51:30;23.60;58.00
7077;DHT22;3579;48.956;9.154;2023-07-31T03:53:56;23.60;58.00
7077;DHT22;3579;48.956;9.154;2023-07-31T03:56:22;23.60;58.10
7077;DHT22;3579;48.956;9.154;2023-07-31T03:58:48;23.60;58.10
7077;DHT22;3579;48.956;9.154;2023-07-31T04:01:14;23.60;58.20
7077;DHT22;3579;48.956;9.154;2023-07-31T04:03:40;23.60;58.20
7077;DHT22;3579;48.956;9.154;2023-07-31T04:06:07;23.60;58.10
7077;DHT22;3579;48.956;9.154;2023-07-31T04:08:33;23.60;58.10
7077;DHT22;3579;48.956;9.154;2023-07-31T04:10:59;23.60;58.10
7077;DHT22;3579;48.956;9.154;2023-07-31T04:13:25;23.60;58.10
7077;DHT22;3579;48.956;9.154;2023-07-31T04:15:53;23.60;58.10
7077;DHT22;3579;48.956;9.154;2023-07-31T04:18:20;23.60;58.00
7077;DHT22;3579;48.956;9.154;2023-07-31T04:20:46;23.60;58.00
7077;DHT22;3579;48.956;9.154;2023-07-31T04:23:12;23.70;58.10
7077;DHT22;3579;48.956;9.154;2023-07-31T04:25:38;23.70;58.00
7077;DHT22;3579;48.956;9.154;2023-07-31T04:28:04;23.70;58.00
7077;DHT22;3579;48.956;9.154;2023-07-31T04:30:30;23.70;58.00
7077;DHT22;3579;48.956;9.154;2023-07-31T04:32:56;23.70;58.00
7077;DHT22;3579;48.956;9.154;2023-07-31T04:35:22;23.70;58.00
7077;DHT22;3579;48.956;9.154;2023-07-31T04:37:49;23.70;57.80
7077;DHT22;3579;48.956;9.154;2023-07-31T04:40:16;23.70;58.30
7077;DHT22;3579;48.956;9.154;2023-07-31T04:42:42;23.70;57.70
7077;DHT22;3579;48.956;9.154;2023-07-31T04:45:09;23.70;57.60
7077;DHT22;3579;48.956;9.154;2023-07-31T04:47:35;23.80;57.60
7077;DHT22;3579;48.956;9.154;2023-07-31T04:50:01;23.70;57.50
7077;DHT22;3579;48.956;9.154;2023-07-31T04:52:27;23.70;57.50
7077;DHT22;3579;48.956;9.154;2023-07-31T04:54:53;23.70;57.40
7077;DHT22;3579;48.956;9.154;2023-07-31T04:57:19;23.80;57.40
7077;DHT22;3579;48.956;9.154;2023-07-31T04:59:45;23.80;57.30
7077;DHT22;3579;48.956;9.154;2023-07-31T05:02:12;23.80;57.20
7077;DHT22;3579;48.956;9.154;2023-07-31T05:04:39;23.80;57.20
7077;DHT22;3579;48.956;9.154;2023-07-31T05:07:05;23.90;57.20
7077;DHT22;3579;48.956;9.154;2023-07-31T05:09:31;23.90;57.10
7077;DHT22;3579;48.956;9.154;2023-07-31T05:11:57;23.90;57.00
7077;DHT22;3579;48.956;9.154;2023-07-31T05:14:23;23.80;56.90
7077;DHT22;3579;48.956;9.154;2023-07-31T05:16:49;23.80;56.90
7077;DHT22;3579;48.956;9.154;2023-07-31T05:19:15;23.80;56.90
7077;DHT22;3579;48.956;9.154;2023-07-31T05:21:41;23.80;56.80
7077;DHT22;3579;48.956;9.154;2023-07-31T05:24:07;23.90;56.70
7077;DHT22;3579;48.956;9.154;2023-07-31T05:26:33;23.90;56.50
7077;DHT22;3579;48.956;9.154;2023-07-31T05:28:59;24.00;56.50
7077;DHT22;3579;48.956;9.154;2023-07-31T05:31:25;24.00;56.20
7077;DHT22;3579;48.956;9.154;2023-07-31T05:33:51;24.10;55.90
7077;DHT22;3579;48.956;9.154;2023-07-31T05:36:18;24.20;55.70
7077;DHT22;3579;48.956;9.154;2023-07-31T05:38:44;24.20;55.00
7077;DHT22;3579;48.956;9.154;2023-07-31T05:41:11;24.30;54.30
7077;DHT22;3579;48.956;9.154;2023-07-31T05:43:38;24.30;54.50
7077;DHT22;3579;48.956;9.154;2023-07-31T05:46:04;24.20;53.80
7077;DHT22;3579;48.956;9.154;2023-07-31T05:48:30;24.20;53.20
7077;DHT22;3579;48.956;9.154;2023-07-31T05:50:56;24.20;53.20
7077;DHT22;3579;48.956;9.154;2023-07-31T05:53:22;24.20;54.40
7077;DHT22;3579;48.956;9.154;2023-07-31T05:55:48;24.20;53.80
7077;DHT22;3579;48.956;9.154;2023-07-31T05:58:14;24.20;53.10
7077;DHT22;3579;48.956;9.154;2023-07-31T06:00:40;24.20;54.00
7077;DHT22;3579;48.956;9.154;2023-07-31T06:03:06;24.30;52.90
7077;DHT22;3579;48.956;9.154;2023-07-31T06:05:32;24.30;52.70
7077;DHT22;3579;48.956;9.154;2023-07-31T06:07:58;24.50;52.40
7077;DHT22;3579;48.956;9.154;2023-07-31T06:10:24;24.70;52.00
7077;DHT22;3579;48.956;9.154;2023-07-31T06:12:51;24.80;52.20
7077;DHT22;3579;48.956;9.154;2023-07-31T06:15:17;24.80;52.20
7077;DHT22;3579;48.956;9.154;2023-07-31T06:17:45;25.00;52.10
7077;DHT22;3579;48.956;9.154;2023-07-31T06:20:11;25.20;51.60
7077;DHT22;3579;48.956;9.154;2023-07-31T06:22:37;25.30;51.20
7077;DHT22;3579;48.956;9.154;2023-07-31T06:25:03;25.50;50.10
7077;DHT22;3579;48.956;9.154;2023-07-31T06:27:30;25.70;50.70
7077;DHT22;3579;48.956;9.154;2023-07-31T06:29:56;25.80;50.20
7077;DHT22;3579;48.956;9.154;2023-07-31T06:32:22;25.90;50.20
7077;DHT22;3579;48.956;9.154;2023-07-31T06:34:48;26.00;50.10
7077;DHT22;3579;48.956;9.154;2023-07-31T06:37:14;26.30;49.30
7077;DHT22;3579;48.956;9.154;2023-07-31T06:39:40;26.50;48.90
7077;DHT22;3579;48.956;9.154;2023-07-31T06:42:06;26.50;48.40
7077;DHT22;3579;48.956;9.154;2023-07-31T06:44:32;26.10;49.20
7077;DHT22;3579;48.956;9.154;2023-07-31T06:46:58;25.90;49.60
7077;DHT22;3579;48.956;9.154;2023-07-31T06:49:24;26.10;49.40
7077;DHT22;3579;48.956;9.154;2023-07-31T06:51:50;26.40;48.50
7077;DHT22;3579;48.956;9.154;2023-07-31T06:54:16;26.40;48.40
7077;DHT22;3579;48.956;9.154;2023-07-31T06:56:42;26.10;48.80
7077;DHT22;3579;48.956;9.154;2023-07-31T06:59:08;25.90;48.90
7077;DHT22;3579;48.956;9.154;2023-07-31T07:01:34;25.80;49.20
7077;DHT22;3579;48.956;9.154;2023-07-31T07:04:01;25.60;49.50
7077;DHT22;3579;48.956;9.154;2023-07-31T07:06:27;25.60;49.60
7077;DHT22;3579;48.956;9.154;2023-07-31T07:08:53;25.50;49.50
7077;DHT22;3579;48.956;9.154;2023-07-31T07:11:19;25.40;49.30
7077;DHT22;3579;48.956;9.154;2023-07-31T07:13:45;25.00;49.20
7077;DHT22;3579;48.956;9.154;2023-07-31T07:16:11;24.60;49.10
7077;DHT22;3579;48.956;9.154;2023-07-31T07:18:37;24.40;49.50
7077;DHT22;3579;48.956;9.154;2023-07-31T07:21:03;24.40;49.60
7077;DHT22;3579;48.956;9.154;2023-07-31T07:23:30;24.30;49.80
7077;DHT22;3579;48.956;9.154;2023-07-31T07:25:56;24.30;50.10
7077;DHT22;3579;48.956;9.154;2023-07-31T07:28:22;24.30;50.50
7077;DHT22;3579;48.956;9.154;2023-07-31T07:30:52;24.40;50.20
7077;DHT22;3579;48.956;9.154;2023-07-31T07:33:19;24.30;50.00
7077;DHT22;3579;48.956;9.154;2023-07-31T07:35:45;24.50;50.00
7077;DHT22;3579;48.956;9.154;2023-07-31T07:38:14;24.50;50.10
7077;DHT22;3579;48.956;9.154;2023-07-31T07:40:41;24.60;50.10
7077;DHT22;3579;48.956;9.154;2023-07-31T07:43:07;24.60;49.90
7077;DHT22;3579;48.956;9.154;2023-07-31T07:45:33;24.70;49.60
7077;DHT22;3579;48.956;9.154;2023-07-31T07:47:59;24.70;50.00
7077;DHT22;3579;48.956;9.154;2023-07-31T07:50:25;24.80;49.60
7077;DHT22;3579;48.956;9.154;2023-07-31T07:52:51;24.70;49.20
7077;DHT22;3579;48.956;9.154;2023-07-31T07:55:17;24.70;49.40
7077;DHT22;3579;48.956;9.154;2023-07-31T07:57:43;24.60;49.60
7077;DHT22;3579;48.956;9.154;2023-07-31T08:00:12;24.50;49.60
7077;DHT22;3579;48.956;9.154;2023-07-31T08:02:38;24.30;49.30
7077;DHT22;3579;48.956;9.154;2023-07-31T08:05:04;24.10;50.00
7077;DHT22;3579;48.956;9.154;2023-07-31T08:07:30;24.20;50.00
7077;DHT22;3579;48.956;9.154;2023-07-31T08:09:56;24.30;49.90
7077;DHT22;3579;48.956;9.154;2023-07-31T08:12:22;24.20;50.20
7077;DHT22;3579;48.956;9.154;2023-07-31T08:14:49;24.30;50.00
7077;DHT22;3579;48.956;9.154;2023-07-31T08:17:15;24.40;49.90
7077;DHT22;3579;48.956;9.154;2023-07-31T08:19:41;24.50;50.10
7077;DHT22;3579;48.956;9.154;2023-07-31T08:22:07;24.50;49.80
7077;DHT22;3579;48.956;9.154;2023-07-31T08:24:33;24.60;49.70
7077;DHT22;3579;48.956;9.154;2023-07-31T08:26:59;24.50;49.60
7077;DHT22;3579;48.956;9.154;2023-07-31T08:29:25;24.50;49.70
7077;DHT22;3579;48.956;9.154;2023-07-31T08:31:51;24.60;49.60
7077;DHT22;3579;48.956;9.154;2023-07-31T08:34:17;24.60;49.30
7077;DHT22;3579;48.956;9.154;2023-07-31T08:36:44;24.70;49.70
7077;DHT22;3579;48.956;9.154;2023-07-31T08:39:10;24.60;49.90
7077;DHT22;3579;48.956;9.154;2023-07-31T08:41:39;24.50;50.10
7077;DHT22;3579;48.956;9.154;2023-07-31T08:44:07;24.20;50.30
7077;DHT22;3579;48.956;9.154;2023-07-31T08:46:33;23.90;50.90
7077;DHT22;3579;48.956;9.154;2023-07-31T08:49:03;24.20;50.50
7077;DHT22;3579;48.956;9.154;2023-07-31T08:51:30;24.40;49.90
7077;DHT22;3579;48.956;9.154;2023-07-31T08:53:56;24.50;49.60
7077;DHT22;3579;48.956;9.154;2023-07-31T08:56:23;24.70;49.90
7077;DHT22;3579;48.956;9.154;2023-07-31T08:58:52;24.70;49.90
7077;DHT22;3579;48.956;9.154;2023-07-31T09:01:19;24.80;50.00
7077;DHT22;3579;48.956;9.154;2023-07-31T09:03:46;24.80;49.40
7077;DHT22;3579;48.956;9.154;2023-07-31T09:06:13;24.90;49.90
7077;DHT22;3579;48.956;9.154;2023-07-31T09:08:41;24.90;49.90
7077;DHT22;3579;48.956;9.154;2023-07-31T09:11:08;24.90;49.60
7077;DHT22;3579;48.956;9.154;2023-07-31T09:13:34;24.90;49.60
7077;DHT22;3579;48.956;9.154;2023-07-31T09:16:01;24.90;49.50
7077;DHT22;3579;48.956;9.154;2023-07-31T09:18:27;25.00;49.80
7077;DHT22;3579;48.956;9.154;2023-07-31T09:21:03;25.00;50.00
7077;DHT22;3579;48.956;9.154;2023-07-31T09:23:43;25.00;49.90
7077;DHT22;3579;48.956;9.154;2023-07-31T09:26:10;25.00;49.40
7077;DHT22;3579;48.956;9.154;2023-07-31T09:28:36;25.00;49.60
7077;DHT22;3579;48.956;9.154;2023-07-31T09:31:02;25.10;49.50
7077;DHT22;3579;48.956;9.154;2023-07-31T09:33:34;25.10;49.20
7077;DHT22;3579;48.956;9.154;2023-07-31T09:36:11;25.10;49.10
7077;DHT22;3579;48.956;9.154;2023-07-31T09:38:38;25.10;48.90
7077;DHT22;3579;48.956;9.154;2023-07-31T09:41:05;25.10;48.90
7077;DHT22;3579;48.956;9.154;2023-07-31T09:43:31;25.20;49.00
7077;DHT22;3579;48.956;9.154;2023-07-31T09:45:57;25.30;49.10
7077;DHT22;3579;48.956;9.154;2023-07-31T09:48:24;25.30;48.90
7077;DHT22;3579;48.956;9.154;2023-07-31T09:50:53;25.30;49.00
7077;DHT22;3579;48.956;9.154;2023-07-31T09:53:28;25.40;49.10
7077;DHT22;3579;48.956;9.154;2023-07-31T09:55:58;25.20;48.80
7077;DHT22;3579;48.956;9.154;2023-07-31T09:58:28;25.40;49.00
7077;DHT22;3579;48.956;9.154;2023-07-31T10:00:55;25.50;48.90
7077;DHT22;3579;48.956;9.154;2023-07-31T10:03:23;25.50;48.70
7077;DHT22;3579;48.956;9.154;2023-07-31T10:05:52;25.50;48.90
7077;DHT22;3579;48.956;9.154;2023-07-31T10:08:23;25.50;48.90
7077;DHT22;3579;48.956;9.154;2023-07-31T10:10:52;25.50;48.80
7077;DHT22;3579;48.956;9.154;2023-07-31T10:13:19;25.50;48.70
7077;DHT22;3579;48.956;9.154;2023-07-31T10:16:06;25.60;48.80
7077;DHT22;3579;48.956;9.154;2023-07-31T10:18:34;25.60;48.90
7077;DHT22;3579;48.956;9.154;2023-07-31T10:21:01;25.70;48.60
7077;DHT22;3579;48.956;9.154;2023-07-31T10:23:28;25.70;48.80
7077;DHT22;3579;48.956;9.154;2023-07-31T10:25:55;25.70;48.60
7077;DHT22;3579;48.956;9.154;2023-07-31T10:28:22;25.70;48.70
7077;DHT22;3579;48.956;9.154;2023-07-31T10:30:50;25.80;48.70
7077;DHT22;3579;48.956;9.154;2023-07-31T10:33:18;25.80;48.90
7077;DHT22;3579;48.956;9.154;2023-07-31T10:35:47;25.80;48.50
7077;DHT22;3579;48.956;9.154;2023-07-31T10:38:14;25.80;48.20
7077;DHT22;3579;48.956;9.154;2023-07-31T10:40:40;25.80;48.60
7077;DHT22;3579;48.956;9.154;2023-07-31T10:43:07;25.80;48.50
7077;DHT22;3579;48.956;9.154;2023-07-31T10:45:39;25.80;48.50
7077;DHT22;3579;48.956;9.154;2023-07-31T10:48:12;25.90;48.30
7077;DHT22;3579;48.956;9.154;2023-07-31T10:50:49;25.90;48.50
7077;DHT22;3579;48.956;9.154;2023-07-31T10:53:29;25.90;48.40
7077;DHT22;3579;48.956;9.154;2023-07-31T10:56:06;25.90;48.00
7077;DHT22;3579;48.956;9.154;2023-07-31T10:58:32;26.00;48.30
7077;DHT22;3579;48.956;9.154;2023-07-31T11:01:03;26.00;48.10
7077;DHT22;3579;48.956;9.154;2023-07-31T11:03:50;26.00;48.30
7077;DHT22;3579;48.956;9.154;2023-07-31T11:06:18;26.00;48.30
7077;DHT22;3579;48.956;9.154;2023-07-31T11:08:49;26.00;48.30
7077;DHT22;3579;48.956;9.154;2023-07-31T11:11:17;26.10;48.20
7077;DHT22;3579;48.956;9.154;2023-07-31T11:13:52;26.10;48.20
7077;DHT22;3579;48.956;9.154;2023-07-31T11:16:20;26.10;48.10
7077;DHT22;3579;48.956;9.154;2023-07-31T11:18:47;26.10;48.20
7077;DHT22;3579;48.956;9.154;2023-07-31T11:21:16;26.20;48.00
7077;DHT22;3579;48.956;9.154;2023-07-31T11:23:46;26.20;48.10
7077;DHT22;3579;48.956;9.154;2023-07-31T11:26:12;26.20;48.10
7077;DHT22;3579;48.956;9.154;2023-07-31T11:28:38;26.20;47.90
7077;DHT22;3579;48.956;9.154;2023-07-31T11:31:08;26.20;47.70
7077;DHT22;3579;48.956;9.154;2023-07-31T11:33:35;26.20;47.70
7077;DHT22;3579;48.956;9.154;2023-07-31T11:36:01;26.20;47.80
7077;DHT22;3579;48.956;9.154;2023-07-31T11:38:32;26.30;48.00
7077;DHT22;3579;48.956;9.154;2023-07-31T11:41:00;26.30;47.90
7077;DHT22;3579;48.956;9.154;2023-07-31T11:43:28;26.30;48.00
7077;DHT22;3579;48.956;9.154;2023-07-31T11:45:56;26.30;47.80
7077;DHT22;3579;48.956;9.154;2023-07-31T11:48:27;26.30;47.80
7077;DHT22;3579;48.956;9.154;2023-07-31T11:51:01;26.30;47.80
7077;DHT22;3579;48.956;9.154;2023-07-31T11:53:33;26.30;47.70
7077;DHT22;3579;48.956;9.154;2023-07-31T11:56:02;26.30;47.70
7077;DHT22;3579;48.956;9.154;2023-07-31T11:58:34;26.40;47.90
7077;DHT22;3579;48.956;9.154;2023-07-31T12:01:01;26.40;47.80
7077;DHT22;3579;48.956;9.154;2023-07-31T12:03:27;26.40;47.80
7077;DHT22;3579;48.956;9.154;2023-07-31T12:05:54;26.40;47.80
7077;DHT22;3579;48.956;9.154;2023-07-31T12:08:24;26.50;47.70
7077;DHT22;3579;48.956;9.154;2023-07-31T12:14:25;26.50;47.70
7077;DHT22;3579;48.956;9.154;2023-07-31T12:16:59;26.50;47.60
7077;DHT22;3579;48.956;9.154;2023-07-31T12:19:25;26.50;47.60
7077;DHT22;3579;48.956;9.154;2023-07-31T12:21:55;26.50;47.60
7077;DHT22;3579;48.956;9.154;2023-07-31T12:24:22;26.50;47.10
7077;DHT22;3579;48.956;9.154;2023-07-31T12:26:48;26.50;47.50
7077;DHT22;3579;48.956;9.154;2023-07-31T12:29:14;26.60;47.40
7077;DHT22;3579;48.956;9.154;2023-07-31T12:31:41;26.60;47.20
7077;DHT22;3579;48.956;9.154;2023-07-31T12:34:26;26.60;47.20
7077;DHT22;3579;48.956;9.154;2023-07-31T12:36:53;26.60;47.50
7077;DHT22;3579;48.956;9.154;2023-07-31T12:39:19;26.60;47.60
7077;DHT22;3579;48.956;9.154;2023-07-31T12:41:45;26.60;47.30
7077;DHT22;3579;48.956;9.154;2023-07-31T12:44:11;26.70;47.50
7077;DHT22;3579;48.956;9.154;2023-07-31T12:46:37;26.70;47.20
7077;DHT22;3579;48.956;9.154;2023-07-31T12:49:03;26.70;47.10
7077;DHT22;3579;48.956;9.154;2023-07-31T12:51:30;26.70;47.00
7077;DHT22;3579;48.956;9.154;2023-07-31T12:53:56;26.70;47.10
7077;DHT22;3579;48.956;9.154;2023-07-31T12:56:22;26.60;48.30
7077;DHT22;3579;48.956;9.154;2023-07-31T12:58:48;26.60;48.20
7077;DHT22;3579;48.956;9.154;2023-07-31T13:01:14;26.60;48.00
7077;DHT22;3579;48.956;9.154;2023-07-31T13:03:40;26.70;47.10
7077;DHT22;3579;48.956;9.154;2023-07-31T13:06:06;26.70;47.00
7077;DHT22;3579;48.956;9.154;2023-07-31T13:08:32;26.70;47.20
7077;DHT22;3579;48.956;9.154;2023-07-31T13:10:58;26.60;48.00
7077;DHT22;3579;48.956;9.154;2023-07-31T13:13:24;26.50;48.20
7077;DHT22;3579;48.956;9.154;2023-07-31T13:15:50;26.50;47.50
7077;DHT22;3579;48.956;9.154;2023-07-31T13:18:16;26.40;47.30
7077;DHT22;3579;48.956;9.154;2023-07-31T13:20:42;26.40;46.90
7077;DHT22;3579;48.956;9.154;2023-07-31T13:23:09;26.40;46.60
7077;DHT22;3579;48.956;9.154;2023-07-31T13:25:35;26.10;47.00
7077;DHT22;3579;48.956;9.154;2023-07-31T13:28:01;26.20;46.70
7077;DHT22;3579;48.956;9.154;2023-07-31T13:30:27;26.00;47.30
7077;DHT22;3579;48.956;9.154;2023-07-31T13:32:53;26.00;47.60
7077;DHT22;3579;48.956;9.154;2023-07-31T13:35:19;25.90;48.10
7077;DHT22;3579;48.956;9.154;2023-07-31T13:37:45;26.00;48.30
7077;DHT22;3579;48.956;9.154;2023-07-31T13:40:12;25.90;48.30
7077;DHT22;3579;48.956;9.154;2023-07-31T13:42:38;25.90;48.20
7077;DHT22;3579;48.956;9.154;2023-07-31T13:45:04;25.70;48.30
7077;DHT22;3579;48.956;9.154;2023-07-31T13:47:30;25.90;48.40
7077;DHT22;3579;48.956;9.154;2023-07-31T13:49:57;25.80;48.40
7077;DHT22;3579;48.956;9.154;2023-07-31T13:52:23;25.80;48.50
7077;DHT22;3579;48.956;9.154;2023-07-31T13:54:49;25.90;48.40
7077;DHT22;3579;48.956;9.154;2023-07-31T13:57:16;25.90;48.40
7077;DHT22;3579;48.956;9.154;2023-07-31T13:59:42;25.90;48.10
7077;DHT22;3579;48.956;9.154;2023-07-31T14:02:08;25.90;48.20
7077;DHT22;3579;48.956;9.154;2023-07-31T14:04:35;25.90;48.50
7077;DHT22;3579;48.956;9.154;2023-07-31T14:07:00;25.70;48.60
7077;DHT22;3579;48.956;9.154;2023-07-31T14:09:27;25.70;48.60
7077;DHT22;3579;48.956;9.154;2023-07-31T14:11:54;25.80;48.70
7077;DHT22;3579;48.956;9.154;2023-07-31T14:14:20;25.90;48.50
7077;DHT22;3579;48.956;9.154;2023-07-31T14:16:46;25.90;48.30
7077;DHT22;3579;48.956;9.154;2023-07-31T14:19:12;25.80;48.00
7077;DHT22;3579;48.956;9.154;2023-07-31T14:21:38;25.80;48.10
7077;DHT22;3579;48.956;9.154;2023-07-31T14:24:04;25.90;48.40
7077;DHT22;3579;48.956;9.154;2023-07-31T14:26:30;25.90;48.90
7077;DHT22;3579;48.956;9.154;2023-07-31T14:28:57;25.80;48.40
7077;DHT22;3579;48.956;9.154;2023-07-31T14:31:23;25.60;48.50
7077;DHT22;3579;48.956;9.154;2023-07-31T14:33:49;25.80;49.10
7077;DHT22;3579;48.956;9.154;2023-07-31T14:36:15;25.90;48.50
7077;DHT22;3579;48.956;9.154;2023-07-31T14:38:41;25.90;48.60
7077;DHT22;3579;48.956;9.154;2023-07-31T14:41:07;26.00;48.30
7077;DHT22;3579;48.956;9.154;2023-07-31T14:43:33;26.00;48.20
7077;DHT22;3579;48.956;9.154;2023-07-31T14:45:59;25.80;48.40
7077;DHT22;3579;48.956;9.154;2023-07-31T14:48:26;25.70;48.50
7077;DHT22;3579;48.956;9.154;2023-07-31T14:50:53;25.80;48.60
7077;DHT22;3579;48.956;9.154;2023-07-31T14:53:19;25.90;49.00
7077;DHT22;3579;48.956;9.154;2023-07-31T14:55:45;25.90;48.50
7077;DHT22;3579;48.956;9.154;2023-07-31T14:58:11;25.90;49.00
7077;DHT22;3579;48.956;9.154;2023-07-31T15:00:39;25.90;48.60
7077;DHT22;3579;48.956;9.154;2023-07-31T15:03:06;26.00;48.70
7077;DHT22;3579;48.956;9.154;2023-07-31T15:05:32;25.90;48.50
7077;DHT22;3579;48.956;9.154;2023-07-31T15:07:58;25.90;48.60
7077;DHT22;3579;48.956;9.154;2023-07-31T15:10:24;25.80;48.70
7077;DHT22;3579;48.956;9.154;2023-07-31T15:12:50;25.90;48.80
7077;DHT22;3579;48.956;9.154;2023-07-31T15:15:16;25.90;49.30
7077;DHT22;3579;48.956;9.154;2023-07-31T15:17:42;25.60;49.30
7077;DHT22;3579;48.956;9.154;2023-07-31T15:20:09;25.60;49.00
7077;DHT22;3579;48.956;9.154;2023-07-31T15:22:42;25.70;49.00
7077;DHT22;3579;48.956;9.154;2023-07-31T15:25:09;25.80;48.60
7077;DHT22;3579;48.956;9.154;2023-07-31T15:27:35;25.70;48.80
7077;DHT22;3579;48.956;9.154;2023-07-31T15:30:01;25.80;48.50
7077;DHT22;3579;48.956;9.154;2023-07-31T15:32:27;25.70;48.80
7077;DHT22;3579;48.956;9.154;2023-07-31T15:34:53;25.90;49.00
7077;DHT22;3579;48.956;9.154;2023-07-31T15:37:19;25.90;48.90
7077;DHT22;3579;48.956;9.154;2023-07-31T15:39:46;25.90;48.90
7077;DHT22;3579;48.956;9.154;2023-07-31T15:42:12;25.80;49.00
7077;DHT22;3579;48.956;9.154;2023-07-31T15:44:38;25.90;49.80
7077;DHT22;3579;48.956;9.154;2023-07-31T15:47:05;25.80;49.10
7077;DHT22;3579;48.956;9.154;2023-07-31T15:49:31;25.60;49.40
7077;DHT22;3579;48.956;9.154;2023-07-31T15:51:57;25.80;49.40
7077;DHT22;3579;48.956;9.154;2023-07-31T15:54:23;25.80;49.20
7077;DHT22;3579;48.956;9.154;2023-07-31T15:56:49;25.80;49.10
7077;DHT22;3579;48.956;9.154;2023-07-31T15:59:15;25.70;49.20
7077;DHT22;3579;48.956;9.154;2023-07-31T16:01:41;25.60;49.40
7077;DHT22;3579;48.956;9.154;2023-07-31T16:04:07;25.70;49.40
7077;DHT22;3579;48.956;9.154;2023-07-31T16:06:33;25.80;49.60
7077;DHT22;3579;48.956;9.154;2023-07-31T16:08:59;25.70;49.40
7077;DHT22;3579;48.956;9.154;2023-07-31T16:11:27;25.70;49.40